sensor_id;sensor_type;location;lat;lon;timestamp;pressure;altitude;pressure_sealevel;temperature;humidity
77452;BME280;66537;52.370;4.832;2023-03-01T00:01:21;103347.00;;;2.67;80.00
77452;BME280;66537;52.370;4.832;2023-03-01T00:03:47;103350.63;;;2.72;80.02
77452;BME280;66537;52.370;4.832;2023-03-01T00:06:12;103351.63;;;2.75;79.28
77452;BME280;66537;52.370;4.832;2023-03-01T00:08:38;103349.22;;;2.79;79.44
77452;BME280;66537;52.370;4.832;2023-03-01T00:11:07;103337.84;;;2.72;79.56
77452;BME280;66537;52.370;4.832;2023-03-01T00:13:34;103335.50;;;2.77;79.23
77452;BME280;66537;52.370;4.832;2023-03-01T00:16:07;103342.66;;;2.85;79.24
77452;BME280;66537;52.370;4.832;2023-03-01T00:18:33;103344.34;;;2.85;79.38
77452;BME280;66537;52.370;4.832;2023-03-01T00:20:58;103330.09;;;2.90;79.17
77452;BME280;66537;52.370;4.832;2023-03-01T00:23:24;103337.19;;;2.76;79.73
77452;BME280;66537;52.370;4.832;2023-03-01T00:25:50;103334.81;;;2.81;79.17
77452;BME280;66537;52.370;4.832;2023-03-01T00:28:17;103330.72;;;2.84;79.26
77452;BME280;66537;52.370;4.832;2023-03-01T00:30:42;103331.19;;;2.75;79.19
77452;BME280;66537;52.370;4.832;2023-03-01T00:33:08;103330.06;;;2.69;79.51
77452;BME280;66537;52.370;4.832;2023-03-01T00:35:34;103331.06;;;2.72;79.39
77452;BME280;66537;52.370;4.832;2023-03-01T00:38:00;103335.19;;;2.69;80.49
77452;BME280;66537;52.370;4.832;2023-03-01T00:40:27;103334.28;;;2.68;80.00
77452;BME280;66537;52.370;4.832;2023-03-01T00:42:52;103309.53;;;2.67;80.19
77452;BME280;66537;52.370;4.832;2023-03-01T00:45:18;103322.47;;;2.70;79.83
77452;BME280;66537;52.370;4.832;2023-03-01T00:47:43;103328.28;;;2.68;79.95
77452;BME280;66537;52.370;4.832;2023-03-01T00:50:10;103322.97;;;2.63;79.55
77452;BME280;66537;52.370;4.832;2023-03-01T00:52:36;103328.97;;;2.64;79.70
77452;BME280;66537;52.370;4.832;2023-03-01T00:55:01;103321.47;;;2.67;79.65
77452;BME280;66537;52.370;4.832;2023-03-01T00:57:26;103320.16;;;2.77;79.21
77452;BME280;66537;52.370;4.832;2023-03-01T00:59:52;103316.72;;;2.76;78.62
77452;BME280;66537;52.370;4.832;2023-03-01T01:02:18;103314.22;;;2.78;78.82
77452;BME280;66537;52.370;4.832;2023-03-01T01:04:45;103309.78;;;2.73;79.37
77452;BME280;66537;52.370;4.832;2023-03-01T01:07:10;103311.47;;;2.73;79.27
77452;BME280;66537;52.370;4.832;2023-03-01T01:09:36;103321.50;;;2.68;79.48
77452;BME280;66537;52.370;4.832;2023-03-01T01:12:02;103324.75;;;2.64;79.70
77452;BME280;66537;52.370;4.832;2023-03-01T01:14:28;103311.22;;;2.48;79.63
77452;BME280;66537;52.370;4.832;2023-03-01T01:16:53;103309.59;;;2.50;80.25
77452;BME280;66537;52.370;4.832;2023-03-01T01:19:19;103313.94;;;2.51;80.02
77452;BME280;66537;52.370;4.832;2023-03-01T01:21:44;103309.44;;;2.45;80.07
77452;BME280;66537;52.370;4.832;2023-03-01T01:24:10;103306.22;;;2.30;80.43
77452;BME280;66537;52.370;4.832;2023-03-01T01:26:36;103306.81;;;2.44;80.63
77452;BME280;66537;52.370;4.832;2023-03-01T01:29:03;103295.03;;;2.47;80.28
77452;BME280;66537;52.370;4.832;2023-03-01T01:31:29;103290.41;;;2.39;79.96
77452;BME280;66537;52.370;4.832;2023-03-01T01:33:56;103287.06;;;2.40;80.22
77452;BME280;66537;52.370;4.832;2023-03-01T01:36:22;103281.53;;;2.31;80.38
77452;BME280;66537;52.370;4.832;2023-03-01T01:38:47;103280.66;;;2.30;80.65
77452;BME280;66537;52.370;4.832;2023-03-01T01:41:13;103271.97;;;2.27;80.46
77452;BME280;66537;52.370;4.832;2023-03-01T01:44:08;103271.78;;;2.22;80.75
77452;BME280;66537;52.370;4.832;2023-03-01T01:46:37;103276.69;;;2.18;80.66
77452;BME280;66537;52.370;4.832;2023-03-01T01:49:07;103278.56;;;2.03;80.69
77452;BME280;66537;52.370;4.832;2023-03-01T01:51:38;103277.13;;;1.90;81.06
77452;BME280;66537;52.370;4.832;2023-03-01T01:54:10;103271.22;;;1.91;81.35
77452;BME280;66537;52.370;4.832;2023-03-01T01:56:40;103272.78;;;1.88;81.43
77452;BME280;66537;52.370;4.832;2023-03-01T01:59:08;103270.91;;;1.83;81.94
77452;BME280;66537;52.370;4.832;2023-03-01T02:01:34;103267.94;;;1.94;81.70
77452;BME280;66537;52.370;4.832;2023-03-01T02:04:00;103266.53;;;2.00;81.56
77452;BME280;66537;52.370;4.832;2023-03-01T02:06:33;103270.91;;;1.83;81.55
77452;BME280;66537;52.370;4.832;2023-03-01T02:09:07;103272.16;;;1.74;81.94
77452;BME280;66537;52.370;4.832;2023-03-01T02:11:36;103271.34;;;1.75;82.29
77452;BME280;66537;52.370;4.832;2023-03-01T02:14:03;103272.88;;;1.71;82.34
77452;BME280;66537;52.370;4.832;2023-03-01T02:16:29;103274.16;;;1.81;82.13
77452;BME280;66537;52.370;4.832;2023-03-01T02:18:56;103271.13;;;1.70;82.27
77452;BME280;66537;52.370;4.832;2023-03-01T02:24:31;103262.72;;;1.73;82.31
77452;BME280;66537;52.370;4.832;2023-03-01T02:27:00;103256.63;;;1.69;82.50
77452;BME280;66537;52.370;4.832;2023-03-01T02:29:26;103251.91;;;1.59;82.35
77452;BME280;66537;52.370;4.832;2023-03-01T02:31:54;103248.69;;;1.63;82.50
77452;BME280;66537;52.370;4.832;2023-03-01T02:34:24;103254.66;;;1.64;82.23
77452;BME280;66537;52.370;4.832;2023-03-01T02:37:07;103250.06;;;1.57;82.49
77452;BME280;66537;52.370;4.832;2023-03-01T02:39:40;103250.94;;;1.57;82.58
77452;BME280;66537;52.370;4.832;2023-03-01T02:42:10;103251.59;;;1.53;82.69
77452;BME280;66537;52.370;4.832;2023-03-01T02:44:36;103250.81;;;1.54;82.67
77452;BME280;66537;52.370;4.832;2023-03-01T02:47:03;103242.50;;;1.58;82.43
77452;BME280;66537;52.370;4.832;2023-03-01T02:49:35;103246.28;;;1.66;82.16
77452;BME280;66537;52.370;4.832;2023-03-01T02:52:05;103234.72;;;1.74;81.53
77452;BME280;66537;52.370;4.832;2023-03-01T02:54:47;103234.72;;;1.74;81.02
77452;BME280;66537;52.370;4.832;2023-03-01T02:57:16;103230.16;;;1.67;80.82
77452;BME280;66537;52.370;4.832;2023-03-01T02:59:42;103227.75;;;1.70;80.73
77452;BME280;66537;52.370;4.832;2023-03-01T03:02:20;103228.84;;;1.75;80.61
77452;BME280;66537;52.370;4.832;2023-03-01T03:04:47;103240.16;;;1.63;81.08
77452;BME280;66537;52.370;4.832;2023-03-01T03:07:12;103229.88;;;1.61;81.47
77452;BME280;66537;52.370;4.832;2023-03-01T03:09:38;103221.06;;;1.55;81.85
77452;BME280;66537;52.370;4.832;2023-03-01T03:12:03;103218.78;;;1.61;81.72
77452;BME280;66537;52.370;4.832;2023-03-01T03:14:29;103224.78;;;1.61;81.65
77452;BME280;66537;52.370;4.832;2023-03-01T03:16:54;103221.06;;;1.55;81.83
77452;BME280;66537;52.370;4.832;2023-03-01T03:19:19;103219.88;;;1.47;81.94
77452;BME280;66537;52.370;4.832;2023-03-01T03:21:45;103216.28;;;1.43;82.02
77452;BME280;66537;52.370;4.832;2023-03-01T03:24:11;103215.56;;;1.46;82.05
77452;BME280;66537;52.370;4.832;2023-03-01T03:26:36;103209.19;;;1.55;81.68
77452;BME280;66537;52.370;4.832;2023-03-01T03:29:02;103205.50;;;1.49;81.65
77452;BME280;66537;52.370;4.832;2023-03-01T03:31:27;103200.78;;;1.39;82.07
77452;BME280;66537;52.370;4.832;2023-03-01T03:33:53;103196.56;;;1.39;82.19
77452;BME280;66537;52.370;4.832;2023-03-01T03:36:22;103199.19;;;1.41;82.25
77452;BME280;66537;52.370;4.832;2023-03-01T03:38:48;103193.31;;;1.43;82.08
77452;BME280;66537;52.370;4.832;2023-03-01T03:41:14;103189.66;;;1.56;82.01
77452;BME280;66537;52.370;4.832;2023-03-01T03:43:41;103190.38;;;1.53;81.61
77452;BME280;66537;52.370;4.832;2023-03-01T03:46:08;103189.16;;;1.45;81.99
77452;BME280;66537;52.370;4.832;2023-03-01T03:48:41;103184.56;;;1.56;81.34
77452;BME280;66537;52.370;4.832;2023-03-01T03:51:07;103181.41;;;1.61;80.87
77452;BME280;66537;52.370;4.832;2023-03-01T03:53:34;103175.13;;;1.36;81.26
77452;BME280;66537;52.370;4.832;2023-03-01T03:55:59;103180.84;;;1.49;81.37
77452;BME280;66537;52.370;4.832;2023-03-01T03:58:26;103192.81;;;1.50;81.11
77452;BME280;66537;52.370;4.832;2023-03-01T04:00:54;103190.03;;;1.46;81.58
77452;BME280;66537;52.370;4.832;2023-03-01T04:03:21;103202.38;;;1.37;82.08
77452;BME280;66537;52.370;4.832;2023-03-01T04:05:48;103197.94;;;1.33;81.91
77452;BME280;66537;52.370;4.832;2023-03-01T04:08:16;103195.47;;;1.34;81.96
77452;BME280;66537;52.370;4.832;2023-03-01T04:10:44;103203.41;;;1.40;81.50
77452;BME280;66537;52.370;4.832;2023-03-01T04:13:15;103192.22;;;1.56;81.37
77452;BME280;66537;52.370;4.832;2023-03-01T04:15:41;103189.44;;;1.51;80.44
77452;BME280;66537;52.370;4.832;2023-03-01T04:18:08;103181.66;;;1.48;81.07
77452;BME280;66537;52.370;4.832;2023-03-01T04:20:36;103182.72;;;1.34;81.36
77452;BME280;66537;52.370;4.832;2023-03-01T04:23:06;103176.31;;;1.25;81.94
77452;BME280;66537;52.370;4.832;2023-03-01T04:25:54;103176.47;;;1.28;80.83
77452;BME280;66537;52.370;4.832;2023-03-01T04:30:52;103178.44;;;1.16;81.03
77452;BME280;66537;52.370;4.832;2023-03-01T04:33:17;103178.09;;;1.08;81.87
77452;BME280;66537;52.370;4.832;2023-03-01T04:35:43;103182.13;;;1.22;80.98
77452;BME280;66537;52.370;4.832;2023-03-01T04:38:08;103173.63;;;1.22;80.29
77452;BME280;66537;52.370;4.832;2023-03-01T04:40:34;103172.59;;;1.18;79.98
77452;BME280;66537;52.370;4.832;2023-03-01T04:43:00;103170.81;;;1.16;79.83
77452;BME280;66537;52.370;4.832;2023-03-01T04:45:25;103169.91;;;1.15;79.71
77452;BME280;66537;52.370;4.832;2023-03-01T04:47:51;103163.09;;;1.14;79.69
77452;BME280;66537;52.370;4.832;2023-03-01T04:50:19;103164.16;;;1.19;79.31
77452;BME280;66537;52.370;4.832;2023-03-01T04:52:46;103164.16;;;1.19;79.39
77452;BME280;66537;52.370;4.832;2023-03-01T04:55:11;103161.38;;;1.32;79.33
77452;BME280;66537;52.370;4.832;2023-03-01T04:57:37;103161.66;;;1.38;78.91
77452;BME280;66537;52.370;4.832;2023-03-01T05:00:04;103167.13;;;1.28;79.61
77452;BME280;66537;52.370;4.832;2023-03-01T05:02:49;103161.25;;;1.29;79.78
77452;BME280;66537;52.370;4.832;2023-03-01T05:05:30;103166.91;;;1.41;79.50
77452;BME280;66537;52.370;4.832;2023-03-01T05:07:59;103164.41;;;1.43;79.72
77452;BME280;66537;52.370;4.832;2023-03-01T05:10:26;103156.00;;;1.45;79.35
77452;BME280;66537;52.370;4.832;2023-03-01T05:12:52;103158.66;;;1.47;78.75
77452;BME280;66537;52.370;4.832;2023-03-01T05:15:18;103153.22;;;1.39;78.59
77452;BME280;66537;52.370;4.832;2023-03-01T05:17:43;103150.06;;;1.45;78.64
77452;BME280;66537;52.370;4.832;2023-03-01T05:20:10;103145.91;;;1.47;78.28
77452;BME280;66537;52.370;4.832;2023-03-01T05:22:35;103142.41;;;1.45;78.29
77452;BME280;66537;52.370;4.832;2023-03-01T05:25:01;103137.69;;;1.54;78.33
77452;BME280;66537;52.370;4.832;2023-03-01T05:27:27;103130.47;;;1.26;79.79
77452;BME280;66537;52.370;4.832;2023-03-01T05:29:52;103125.31;;;1.25;79.67
77452;BME280;66537;52.370;4.832;2023-03-01T05:32:18;103129.03;;;1.31;79.48
77452;BME280;66537;52.370;4.832;2023-03-01T05:34:43;103130.66;;;1.48;79.29
77452;BME280;66537;52.370;4.832;2023-03-01T05:37:11;103122.22;;;1.32;79.95
77452;BME280;66537;52.370;4.832;2023-03-01T05:39:37;103111.31;;;1.34;80.27
77452;BME280;66537;52.370;4.832;2023-03-01T05:42:02;103114.97;;;1.39;79.45
77452;BME280;66537;52.370;4.832;2023-03-01T05:44:28;103105.41;;;1.35;79.69
77452;BME280;66537;52.370;4.832;2023-03-01T05:46:54;103117.66;;;1.25;80.52
77452;BME280;66537;52.370;4.832;2023-03-01T05:49:20;103114.69;;;1.33;79.96
77452;BME280;66537;52.370;4.832;2023-03-01T05:51:51;103115.81;;;1.40;79.67
77452;BME280;66537;52.370;4.832;2023-03-01T05:54:17;103112.19;;;1.35;79.08
77452;BME280;66537;52.370;4.832;2023-03-01T05:56:43;103106.16;;;1.33;78.94
77452;BME280;66537;52.370;4.832;2023-03-01T05:59:09;103111.25;;;1.33;78.75
77452;BME280;66537;52.370;4.832;2023-03-01T06:01:35;103107.63;;;1.47;78.71
77452;BME280;66537;52.370;4.832;2023-03-01T06:04:02;103104.66;;;1.38;78.54
77452;BME280;66537;52.370;4.832;2023-03-01T06:06:27;103110.38;;;1.32;78.56
77452;BME280;66537;52.370;4.832;2023-03-01T06:08:53;103104.25;;;1.29;78.74
77452;BME280;66537;52.370;4.832;2023-03-01T06:11:19;103106.41;;;1.39;78.20
77452;BME280;66537;52.370;4.832;2023-03-01T06:13:45;103108.09;;;1.38;78.38
77452;BME280;66537;52.370;4.832;2023-03-01T06:16:11;103101.66;;;1.46;78.17
77452;BME280;66537;52.370;4.832;2023-03-01T06:18:37;103096.28;;;1.40;78.33
77452;BME280;66537;52.370;4.832;2023-03-01T06:21:03;103093.94;;;1.45;78.02
77452;BME280;66537;52.370;4.832;2023-03-01T06:23:29;103092.94;;;1.41;77.96
77452;BME280;66537;52.370;4.832;2023-03-01T06:25:54;103101.31;;;1.58;77.67
77452;BME280;66537;52.370;4.832;2023-03-01T06:28:19;103093.41;;;1.52;78.14
77452;BME280;66537;52.370;4.832;2023-03-01T06:30:45;103091.44;;;1.65;77.98
77452;BME280;66537;52.370;4.832;2023-03-01T06:33:11;103102.19;;;1.58;79.55
77452;BME280;66537;52.370;4.832;2023-03-01T06:35:36;103093.47;;;1.53;80.31
77452;BME280;66537;52.370;4.832;2023-03-01T06:38:03;103099.69;;;1.79;80.43
77452;BME280;66537;52.370;4.832;2023-03-01T06:40:29;103100.00;;;1.87;79.08
77452;BME280;66537;52.370;4.832;2023-03-01T06:42:56;103103.25;;;1.82;79.76
77452;BME280;66537;52.370;4.832;2023-03-01T06:45:21;103109.75;;;1.95;79.94
77452;BME280;66537;52.370;4.832;2023-03-01T06:47:47;103112.81;;;2.07;79.99
77452;BME280;66537;52.370;4.832;2023-03-01T06:50:13;103110.34;;;2.09;79.90
77452;BME280;66537;52.370;4.832;2023-03-01T06:52:39;103101.38;;;2.18;79.63
77452;BME280;66537;52.370;4.832;2023-03-01T06:55:05;103092.78;;;2.16;80.41
77452;BME280;66537;52.370;4.832;2023-03-01T06:57:31;103106.16;;;2.11;81.00
77452;BME280;66537;52.370;4.832;2023-03-01T06:59:57;103104.88;;;2.20;81.50
77452;BME280;66537;52.370;4.832;2023-03-01T07:02:22;103108.16;;;2.38;81.50
77452;BME280;66537;52.370;4.832;2023-03-01T07:04:50;103112.97;;;2.51;81.02
77452;BME280;66537;52.370;4.832;2023-03-01T07:07:17;103113.06;;;2.54;81.34
77452;BME280;66537;52.370;4.832;2023-03-01T07:09:44;103122.56;;;2.57;81.36
77452;BME280;66537;52.370;4.832;2023-03-01T07:12:09;103110.56;;;2.56;81.93
77452;BME280;66537;52.370;4.832;2023-03-01T07:14:34;103116.19;;;2.68;81.54
77452;BME280;66537;52.370;4.832;2023-03-01T07:17:00;103113.63;;;2.68;81.80
77452;BME280;66537;52.370;4.832;2023-03-01T07:19:25;103115.31;;;2.67;82.52
77452;BME280;66537;52.370;4.832;2023-03-01T07:21:51;103123.84;;;2.68;82.51
77452;BME280;66537;52.370;4.832;2023-03-01T07:24:16;103118.94;;;2.72;82.08
77452;BME280;66537;52.370;4.832;2023-03-01T07:26:41;103124.16;;;2.75;82.31
77452;BME280;66537;52.370;4.832;2023-03-01T07:29:09;103118.94;;;2.72;82.17
77452;BME280;66537;52.370;4.832;2023-03-01T07:31:35;103124.72;;;2.68;82.29
77452;BME280;66537;52.370;4.832;2023-03-01T07:34:00;103131.72;;;2.72;82.05
77452;BME280;66537;52.370;4.832;2023-03-01T07:36:26;103131.13;;;2.80;82.12
77452;BME280;66537;52.370;4.832;2023-03-01T07:38:51;103127.53;;;2.74;82.44
77452;BME280;66537;52.370;4.832;2023-03-01T07:41:17;103134.06;;;2.68;82.05
77452;BME280;66537;52.370;4.832;2023-03-01T07:43:43;103133.63;;;2.78;81.79
77452;BME280;66537;52.370;4.832;2023-03-01T07:46:08;103123.41;;;2.78;81.59
77452;BME280;66537;52.370;4.832;2023-03-01T07:48:34;103129.41;;;2.79;81.38
77452;BME280;66537;52.370;4.832;2023-03-01T07:51:00;103133.38;;;3.15;80.88
77452;BME280;66537;52.370;4.832;2023-03-01T07:53:26;103137.66;;;3.38;80.31
77452;BME280;66537;52.370;4.832;2023-03-01T07:56:05;103125.19;;;3.47;80.11
77452;BME280;66537;52.370;4.832;2023-03-01T07:58:31;103128.94;;;3.33;79.70
77452;BME280;66537;52.370;4.832;2023-03-01T08:01:04;103121.66;;;3.43;80.00
77452;BME280;66537;52.370;4.832;2023-03-01T08:03:30;103128.34;;;3.40;80.05
77452;BME280;66537;52.370;4.832;2023-03-01T08:05:55;103133.25;;;3.57;79.67
77452;BME280;66537;52.370;4.832;2023-03-01T08:08:21;103129.31;;;3.65;79.20
77452;BME280;66537;52.370;4.832;2023-03-01T08:10:46;103132.09;;;3.49;79.78
77452;BME280;66537;52.370;4.832;2023-03-01T08:13:12;103138.22;;;3.77;79.29
77452;BME280;66537;52.370;4.832;2023-03-01T08:15:37;103126.19;;;3.74;79.07
77452;BME280;66537;52.370;4.832;2023-03-01T08:18:02;103124.97;;;3.64;79.78
77452;BME280;66537;52.370;4.832;2023-03-01T08:20:28;103117.78;;;3.78;79.11
77452;BME280;66537;52.370;4.832;2023-03-01T08:22:53;103124.31;;;3.94;79.02
77452;BME280;66537;52.370;4.832;2023-03-01T08:25:19;103123.03;;;3.81;79.24
77452;BME280;66537;52.370;4.832;2023-03-01T08:27:44;103125.31;;;3.50;80.20
77452;BME280;66537;52.370;4.832;2023-03-01T08:30:10;103121.97;;;3.76;80.36
77452;BME280;66537;52.370;4.832;2023-03-01T08:32:39;103122.47;;;4.15;79.60
77452;BME280;66537;52.370;4.832;2023-03-01T08:35:05;103120.19;;;4.22;78.76
77452;BME280;66537;52.370;4.832;2023-03-01T08:37:30;103117.97;;;4.33;78.58
77452;BME280;66537;52.370;4.832;2023-03-01T08:39:59;103119.88;;;4.38;78.49
77452;BME280;66537;52.370;4.832;2023-03-01T08:42:25;103114.22;;;4.22;79.21
77452;BME280;66537;52.370;4.832;2023-03-01T08:44:50;103113.38;;;4.23;79.07
77452;BME280;66537;52.370;4.832;2023-03-01T08:47:15;103107.63;;;4.30;78.86
77452;BME280;66537;52.370;4.832;2023-03-01T08:49:41;103118.22;;;4.40;78.58
77452;BME280;66537;52.370;4.832;2023-03-01T08:52:06;103115.25;;;4.28;79.22
77452;BME280;66537;52.370;4.832;2023-03-01T08:54:31;103114.28;;;4.50;78.73
77452;BME280;66537;52.370;4.832;2023-03-01T08:56:57;103120.06;;;4.44;78.56
77452;BME280;66537;52.370;4.832;2023-03-01T08:59:25;103121.00;;;4.21;78.15
77452;BME280;66537;52.370;4.832;2023-03-01T09:01:50;103116.84;;;4.00;78.88
77452;BME280;66537;52.370;4.832;2023-03-01T09:04:16;103111.47;;;3.92;78.93
77452;BME280;66537;52.370;4.832;2023-03-01T09:06:42;103112.88;;;3.84;79.08
77452;BME280;66537;52.370;4.832;2023-03-01T09:09:13;103106.66;;;4.01;79.33
77452;BME280;66537;52.370;4.832;2023-03-01T09:11:40;103109.16;;;4.00;78.90
77452;BME280;66537;52.370;4.832;2023-03-01T09:14:05;103095.00;;;3.86;79.29
77452;BME280;66537;52.370;4.832;2023-03-01T09:16:31;103101.06;;;3.88;79.19
77452;BME280;66537;52.370;4.832;2023-03-01T09:19:01;103103.13;;;3.98;79.71
77452;BME280;66537;52.370;4.832;2023-03-01T09:21:27;103101.47;;;4.25;79.44
77452;BME280;66537;52.370;4.832;2023-03-01T09:23:53;103102.78;;;4.37;78.55
77452;BME280;66537;52.370;4.832;2023-03-01T09:26:22;103098.50;;;4.65;77.93
77452;BME280;66537;52.370;4.832;2023-03-01T09:28:49;103103.41;;;4.84;77.16
77452;BME280;66537;52.370;4.832;2023-03-01T09:31:17;103102.22;;;5.01;76.52
77452;BME280;66537;52.370;4.832;2023-03-01T09:33:48;103091.78;;;5.24;75.39
77452;BME280;66537;52.370;4.832;2023-03-01T09:36:16;103092.97;;;5.35;74.70
77452;BME280;66537;52.370;4.832;2023-03-01T09:38:43;103093.69;;;6.98;71.09
77452;BME280;66537;52.370;4.832;2023-03-01T09:44:31;103084.81;;;8.64;65.11
77452;BME280;66537;52.370;4.832;2023-03-01T09:46:53;103075.31;;;9.23;63.37
77452;BME280;66537;52.370;4.832;2023-03-01T09:49:22;103088.56;;;9.52;60.62
77452;BME280;66537;52.370;4.832;2023-03-01T09:51:57;103077.91;;;10.07;60.12
77452;BME280;66537;52.370;4.832;2023-03-01T09:54:22;103072.06;;;10.23;57.60
77452;BME280;66537;52.370;4.832;2023-03-01T09:57:06;103085.00;;;10.22;58.22
77452;BME280;66537;52.370;4.832;2023-03-01T09:59:39;103066.53;;;11.03;57.11
77452;BME280;66537;52.370;4.832;2023-03-01T10:02:39;103075.13;;;10.96;54.76
77452;BME280;66537;52.370;4.832;2023-03-01T10:05:19;103064.91;;;11.17;54.91
77452;BME280;66537;52.370;4.832;2023-03-01T10:08:00;103069.34;;;11.63;53.34
77452;BME280;66537;52.370;4.832;2023-03-01T10:10:32;103061.53;;;11.45;52.75
77452;BME280;66537;52.370;4.832;2023-03-01T10:13:04;103066.81;;;11.81;52.30
77452;BME280;66537;52.370;4.832;2023-03-01T10:15:39;103073.56;;;11.31;52.36
77452;BME280;66537;52.370;4.832;2023-03-01T10:18:19;103078.94;;;11.81;51.65
77452;BME280;66537;52.370;4.832;2023-03-01T10:20:53;103077.97;;;11.54;49.73
77452;BME280;66537;52.370;4.832;2023-03-01T10:23:21;103086.69;;;11.68;49.27
77452;BME280;66537;52.370;4.832;2023-03-01T10:31:38;103065.09;;;12.49;46.66
77452;BME280;66537;52.370;4.832;2023-03-01T10:34:29;103055.59;;;12.41;45.70
77452;BME280;66537;52.370;4.832;2023-03-01T10:36:57;103056.44;;;12.37;44.17
77452;BME280;66537;52.370;4.832;2023-03-01T10:39:26;103046.06;;;12.50;44.36
77452;BME280;66537;52.370;4.832;2023-03-01T10:41:58;103039.09;;;12.70;44.68
77452;BME280;66537;52.370;4.832;2023-03-01T10:44:39;103029.63;;;12.50;44.77
77452;BME280;66537;52.370;4.832;2023-03-01T10:47:05;103030.50;;;12.23;45.27
77452;BME280;66537;52.370;4.832;2023-03-01T10:49:31;103031.41;;;11.78;46.09
77452;BME280;66537;52.370;4.832;2023-03-01T10:52:11;103028.81;;;12.06;46.71
77452;BME280;66537;52.370;4.832;2023-03-01T10:54:52;103023.44;;;11.21;47.49
77452;BME280;66537;52.370;4.832;2023-03-01T11:00:09;103023.53;;;11.44;47.05
77452;BME280;66537;52.370;4.832;2023-03-01T11:02:40;103022.63;;;11.48;46.30
77452;BME280;66537;52.370;4.832;2023-03-01T11:05:23;103026.78;;;10.93;48.12
77452;BME280;66537;52.370;4.832;2023-03-01T11:07:57;103021.47;;;10.69;48.43
77452;BME280;66537;52.370;4.832;2023-03-01T11:10:34;103013.75;;;10.72;48.35
77452;BME280;66537;52.370;4.832;2023-03-01T11:15:33;103005.88;;;10.57;49.82
77452;BME280;66537;52.370;4.832;2023-03-01T11:17:58;103010.25;;;10.67;50.12
77452;BME280;66537;52.370;4.832;2023-03-01T11:20:25;103001.06;;;11.50;48.95
77452;BME280;66537;52.370;4.832;2023-03-01T11:23:04;102999.22;;;11.10;48.45
77452;BME280;66537;52.370;4.832;2023-03-01T11:25:38;102988.06;;;11.32;48.18
77452;BME280;66537;52.370;4.832;2023-03-01T11:28:06;102999.31;;;11.43;47.34
77452;BME280;66537;52.370;4.832;2023-03-01T11:30:47;102990.75;;;11.87;46.26
77452;BME280;66537;52.370;4.832;2023-03-01T11:33:35;102983.66;;;11.06;45.88
77452;BME280;66537;52.370;4.832;2023-03-01T11:36:31;102981.22;;;11.55;44.04
77452;BME280;66537;52.370;4.832;2023-03-01T11:39:48;102973.34;;;11.16;44.29
77452;BME280;66537;52.370;4.832;2023-03-01T11:41:50;102971.63;;;11.20;42.89
77452;BME280;66537;52.370;4.832;2023-03-01T11:44:23;102969.03;;;11.27;41.43
77452;BME280;66537;52.370;4.832;2023-03-01T12:16:40;102945.03;;;9.90;45.09
77452;BME280;66537;52.370;4.832;2023-03-01T12:22:02;102933.66;;;9.65;44.15
77452;BME280;66537;52.370;4.832;2023-03-01T12:30:53;102933.66;;;8.20;48.79
77452;BME280;66537;52.370;4.832;2023-03-01T12:41:48;102926.69;;;7.61;49.77
77452;BME280;66537;52.370;4.832;2023-03-01T12:44:34;102931.41;;;7.86;50.32
77452;BME280;66537;52.370;4.832;2023-03-01T12:50:01;102923.03;;;7.45;49.32
77452;BME280;66537;52.370;4.832;2023-03-01T12:52:53;102925.19;;;7.24;49.66
77452;BME280;66537;52.370;4.832;2023-03-01T12:55:31;102915.28;;;6.97;49.70
77452;BME280;66537;52.370;4.832;2023-03-01T13:00:53;102902.78;;;7.18;50.07
77452;BME280;66537;52.370;4.832;2023-03-01T13:09:55;102886.97;;;6.99;50.15
77452;BME280;66537;52.370;4.832;2023-03-01T13:12:47;102890.94;;;6.82;50.91
77452;BME280;66537;52.370;4.832;2023-03-01T13:15:32;102893.88;;;6.98;51.10
77452;BME280;66537;52.370;4.832;2023-03-01T13:28:39;102866.13;;;6.84;50.71
77452;BME280;66537;52.370;4.832;2023-03-01T13:33:52;102872.38;;;6.96;52.03
77452;BME280;66537;52.370;4.832;2023-03-01T13:36:45;102869.06;;;7.03;52.63
77452;BME280;66537;52.370;4.832;2023-03-01T13:39:31;102874.19;;;7.00;52.55
77452;BME280;66537;52.370;4.832;2023-03-01T13:42:25;102866.25;;;6.90;52.41
77452;BME280;66537;52.370;4.832;2023-03-01T13:44:49;102858.38;;;6.81;52.73
77452;BME280;66537;52.370;4.832;2023-03-01T13:47:16;102853.91;;;6.74;53.64
77452;BME280;66537;52.370;4.832;2023-03-01T13:49:52;102854.22;;;6.89;52.96
77452;BME280;66537;52.370;4.832;2023-03-01T13:52:38;102860.69;;;6.69;52.77
77452;BME280;66537;52.370;4.832;2023-03-01T13:55:18;102857.53;;;6.83;52.54
77452;BME280;66537;52.370;4.832;2023-03-01T13:57:48;102849.94;;;6.89;52.47
77452;BME280;66537;52.370;4.832;2023-03-01T14:00:37;102834.69;;;7.00;52.58
77452;BME280;66537;52.370;4.832;2023-03-01T14:03:04;102833.75;;;6.95;52.37
77452;BME280;66537;52.370;4.832;2023-03-01T14:05:31;102821.03;;;7.02;52.52
77452;BME280;66537;52.370;4.832;2023-03-01T14:07:57;102818.34;;;6.96;53.28
77452;BME280;66537;52.370;4.832;2023-03-01T14:10:26;102817.50;;;6.99;52.88
77452;BME280;66537;52.370;4.832;2023-03-01T14:19:26;102806.53;;;7.07;56.12
77452;BME280;66537;52.370;4.832;2023-03-01T14:22:00;102805.06;;;7.21;55.10
77452;BME280;66537;52.370;4.832;2023-03-01T14:24:29;102807.41;;;7.08;54.97
77452;BME280;66537;52.370;4.832;2023-03-01T14:26:57;102799.38;;;6.91;55.17
77452;BME280;66537;52.370;4.832;2023-03-01T14:29:35;102786.50;;;6.91;55.06
77452;BME280;66537;52.370;4.832;2023-03-01T14:32:12;102797.53;;;6.83;55.09
77452;BME280;66537;52.370;4.832;2023-03-01T14:34:46;102782.06;;;6.81;53.77
77452;BME280;66537;52.370;4.832;2023-03-01T14:37:23;102783.78;;;6.82;54.42
77452;BME280;66537;52.370;4.832;2023-03-01T14:39:49;102776.88;;;6.80;54.61
77452;BME280;66537;52.370;4.832;2023-03-01T14:42:15;102770.91;;;6.82;53.98
77452;BME280;66537;52.370;4.832;2023-03-01T14:44:43;102775.38;;;6.92;53.18
77452;BME280;66537;52.370;4.832;2023-03-01T14:47:12;102769.50;;;6.99;53.61
77452;BME280;66537;52.370;4.832;2023-03-01T14:49:40;102760.50;;;6.75;53.41